createdAt,value
2022-12-14T00:00:54.622Z,65.07
2022-12-14T00:03:24.759Z,65.51
2022-12-14T00:05:54.346Z,65.83
2022-12-14T00:08:24.135Z,65.77
2022-12-14T00:10:56.312Z,65.21
2022-12-14T00:13:25.879Z,66.11
2022-12-14T00:15:55.455Z,65.58
2022-12-14T00:18:25.579Z,65.94
2022-12-14T00:20:55.594Z,66.05
2022-12-14T00:23:24.871Z,66.15
2022-12-14T00:25:54.738Z,65.73
2022-12-14T00:28:24.367Z,66.28
2022-12-14T00:31:00.310Z,66.25
2022-12-14T00:33:29.938Z,66.01
2022-12-14T00:35:59.231Z,65.90
2022-12-14T00:38:29.406Z,65.78
2022-12-14T00:40:59.568Z,65.88
2022-12-14T00:43:29.357Z,65.84
2022-12-14T00:45:59.409Z,65.44
2022-12-14T00:48:30.015Z,65.40
2022-12-14T00:51:00.299Z,64.81
2022-12-14T00:53:30.195Z,64.67
2022-12-14T00:56:07.504Z,64.60
2022-12-14T00:58:37.779Z,64.65
2022-12-14T01:01:10.339Z,64.94
2022-12-14T01:03:40.427Z,64.95
2022-12-14T01:06:20.003Z,65.57
2022-12-14T01:08:50.400Z,65.49
2022-12-14T01:11:19.994Z,66.01
2022-12-14T01:13:49.944Z,65.47
2022-12-14T01:16:20.010Z,65.68
2022-12-14T01:18:49.762Z,65.94
2022-12-14T01:21:22.067Z,66.01
2022-12-14T01:23:57.040Z,66.24
2022-12-14T01:26:28.860Z,65.95
2022-12-14T01:29:00.301Z,65.92
2022-12-14T01:31:33.221Z,66.67
2022-12-14T01:34:03.153Z,66.76
2022-12-14T01:36:35.625Z,67.04
2022-12-14T01:39:10.602Z,66.52
2022-12-14T01:41:53.422Z,66.63
2022-12-14T01:44:22.474Z,66.17
2022-12-14T01:47:01.259Z,66.89
2022-12-14T01:50:04.585Z,66.68
2022-12-14T01:52:42.884Z,67.29
2022-12-14T01:55:17.921Z,67.12
2022-12-14T01:57:52.935Z,66.89
2022-12-14T02:00:24.213Z,67.29
2022-12-14T02:03:01.039Z,67.60
2022-12-14T02:05:33.793Z,67.27
2022-12-14T02:08:04.314Z,66.92
2022-12-14T02:10:34.466Z,67.18
2022-12-14T02:13:32.898Z,66.86
2022-12-14T02:16:02.544Z,66.78
2022-12-14T02:18:34.422Z,66.41
2022-12-14T02:21:15.901Z,66.37
2022-12-14T02:24:21.146Z,66.19
2022-12-14T02:26:59.674Z,65.78
2022-12-14T02:29:42.951Z,65.29
2022-12-14T02:32:39.133Z,64.81
2022-12-14T02:35:27.284Z,64.46
2022-12-14T02:38:32.287Z,63.98
2022-12-14T02:41:31.305Z,65.01
2022-12-14T02:44:18.137Z,65.23
2022-12-14T02:47:00.217Z,63.73
2022-12-14T02:49:49.672Z,63.04
2022-12-14T02:52:57.781Z,62.70
2022-12-14T02:55:42.352Z,62.71
2022-12-14T02:58:37.814Z,62.51
2022-12-14T03:01:13.422Z,61.81
2022-12-14T03:03:44.550Z,61.85
2022-12-14T03:06:26.910Z,62.26
2022-12-14T03:09:05.433Z,61.45
2022-12-14T03:11:49.959Z,61.37
2022-12-14T03:14:28.954Z,60.13
2022-12-14T03:17:06.192Z,58.10
2022-12-14T03:19:46.209Z,57.12
2022-12-14T03:22:24.641Z,56.92
2022-12-14T03:25:00.479Z,56.49
2022-12-14T03:27:37.921Z,56.54
2022-12-14T03:30:43.826Z,55.66
2022-12-14T03:33:16.567Z,55.70
2022-12-14T03:35:59.688Z,54.53
2022-12-14T03:38:52.003Z,54.08
2022-12-14T03:41:56.870Z,53.89
2022-12-14T03:44:49.699Z,53.84
2022-12-14T03:47:28.382Z,53.78
2022-12-14T03:50:19.775Z,53.67
2022-12-14T03:53:01.946Z,53.27
2022-12-14T03:56:06.600Z,52.73
2022-12-14T03:58:57.199Z,52.99
2022-12-14T04:01:52.083Z,52.69
2022-12-14T04:04:47.500Z,51.76
2022-12-14T04:07:40.133Z,52.29
2022-12-14T04:10:36.058Z,52.07
2022-12-14T04:13:31.318Z,52.06
2022-12-14T04:16:26.001Z,51.72
2022-12-14T04:19:00.955Z,51.66
2022-12-14T04:21:46.578Z,51.49
2022-12-14T04:24:52.072Z,52.14
2022-12-14T04:27:26.094Z,52.17
2022-12-14T04:30:01.651Z,52.09
2022-12-14T04:32:36.717Z,52.31
2022-12-14T04:35:37.447Z,51.23
2022-12-14T04:38:16.291Z,51.40
2022-12-14T04:40:57.662Z,50.97
2022-12-14T04:43:31.576Z,50.85
2022-12-14T04:46:11.094Z,50.61
2022-12-14T04:49:01.645Z,50.11
2022-12-14T04:51:51.292Z,50.59
2022-12-14T04:54:45.863Z,50.52
2022-12-14T04:57:21.684Z,51.20
2022-12-14T04:59:52.219Z,50.70
2022-12-14T05:02:29.538Z,49.92
2022-12-14T05:05:32.389Z,50.20
2022-12-14T05:08:31.493Z,50.50
2022-12-14T05:11:51.933Z,49.77
2022-12-14T05:14:22.959Z,50.37
2022-12-14T05:16:52.756Z,50.69
2022-12-14T05:19:27.584Z,50.04
2022-12-14T05:21:57.247Z,50.13
2022-12-14T05:24:26.849Z,50.01
2022-12-14T05:26:56.450Z,50.13
2022-12-14T05:29:25.881Z,48.89
2022-12-14T05:31:55.920Z,49.06
2022-12-14T05:34:26.024Z,49.13
2022-12-14T05:36:56.052Z,49.48
2022-12-14T05:39:25.979Z,49.76
2022-12-14T05:41:55.745Z,49.47
2022-12-14T05:44:25.607Z,47.15
2022-12-14T05:46:55.084Z,46.63
2022-12-14T05:49:24.844Z,46.30
2022-12-14T05:51:54.772Z,45.27
2022-12-14T05:54:24.393Z,45.46
2022-12-14T05:56:54.090Z,46.13
2022-12-14T05:59:24.121Z,46.24
2022-12-14T06:01:53.550Z,46.05
2022-12-14T06:04:23.288Z,46.38
2022-12-14T06:06:53.304Z,45.09
2022-12-14T06:09:24.005Z,45.25
2022-12-14T06:11:55.140Z,44.98
2022-12-14T06:14:27.964Z,43.45
2022-12-14T06:16:57.854Z,43.75
2022-12-14T06:19:27.219Z,44.00
2022-12-14T06:21:56.887Z,44.78
2022-12-14T06:24:26.814Z,43.77
2022-12-14T06:26:56.180Z,43.01
2022-12-14T06:29:25.866Z,43.14
2022-12-14T06:31:55.792Z,42.78
2022-12-14T06:34:28.692Z,42.94
2022-12-14T06:36:59.609Z,43.49
2022-12-14T06:39:34.052Z,42.75
2022-12-14T06:42:04.952Z,42.70
2022-12-14T06:44:36.114Z,43.25
2022-12-14T06:47:06.674Z,42.86
2022-12-14T06:49:36.896Z,42.54
2022-12-14T06:52:07.571Z,42.93
2022-12-14T06:54:37.753Z,43.75
2022-12-14T06:57:07.797Z,43.07
2022-12-14T06:59:37.278Z,43.19
2022-12-14T07:02:07.060Z,42.95
2022-12-14T07:04:36.761Z,43.03
2022-12-14T07:07:07.503Z,43.56
2022-12-14T07:09:37.098Z,43.59
2022-12-14T07:12:08.038Z,41.88
2022-12-14T07:14:38.647Z,42.62
2022-12-14T07:17:08.755Z,42.54
2022-12-14T07:19:38.287Z,42.31
2022-12-14T07:22:08.248Z,41.40
2022-12-14T07:24:38.825Z,41.01
2022-12-14T07:27:09.739Z,41.05
2022-12-14T07:29:40.125Z,41.17
2022-12-14T07:32:10.103Z,41.27
2022-12-14T07:34:40.231Z,41.29
2022-12-14T07:37:10.033Z,41.54
2022-12-14T07:39:39.692Z,40.27
2022-12-14T07:42:09.399Z,41.59
2022-12-14T07:44:39.906Z,40.54
2022-12-14T07:47:12.543Z,39.48
2022-12-14T07:49:46.630Z,39.56
2022-12-14T07:52:20.373Z,39.68
2022-12-14T07:54:51.575Z,39.84
2022-12-14T07:57:21.127Z,39.05
2022-12-14T07:59:55.792Z,39.65
2022-12-14T08:02:27.578Z,38.80
2022-12-14T08:04:57.527Z,39.28
2022-12-14T08:07:28.598Z,38.68
2022-12-14T08:10:08.526Z,39.69
2022-12-14T08:12:38.990Z,38.21
2022-12-14T08:15:10.437Z,37.05
2022-12-14T08:17:40.217Z,36.31
2022-12-14T08:20:11.950Z,35.98
2022-12-14T08:22:41.654Z,35.53
2022-12-14T08:25:11.779Z,36.47
2022-12-14T08:27:41.771Z,35.67
2022-12-14T08:30:12.051Z,36.36
2022-12-14T08:32:42.026Z,37.21
2022-12-14T08:35:12.317Z,36.58
2022-12-14T08:37:47.324Z,36.85
2022-12-14T08:47:17.773Z,36.96
2022-12-14T08:49:47.716Z,36.71
2022-12-14T08:52:17.726Z,37.36
2022-12-14T08:54:47.331Z,37.81
2022-12-14T08:57:16.698Z,37.42
2022-12-14T09:00:02.759Z,37.47
2022-12-14T09:02:32.826Z,38.07
2022-12-14T09:05:03.020Z,37.33
2022-12-14T09:07:33.866Z,37.02
2022-12-14T09:10:03.808Z,37.78
2022-12-14T09:12:34.902Z,37.77
2022-12-14T09:15:05.499Z,38.37
2022-12-14T09:17:36.933Z,37.62
2022-12-14T09:20:08.663Z,38.96
2022-12-14T09:22:39.623Z,38.70
2022-12-14T09:25:11.112Z,38.72
2022-12-14T09:27:40.860Z,39.13
2022-12-14T09:30:10.928Z,39.80
2022-12-14T09:32:41.322Z,38.42
2022-12-14T09:35:11.535Z,36.96
2022-12-14T09:37:42.149Z,37.37
2022-12-14T09:40:14.795Z,37.43
2022-12-14T09:42:44.350Z,37.32
2022-12-14T09:45:30.180Z,36.99
2022-12-14T09:48:22.313Z,37.06
2022-12-14T09:50:55.169Z,37.29
2022-12-14T09:53:25.994Z,37.54
2022-12-14T09:55:58.643Z,37.82
2022-12-14T09:58:31.576Z,37.14
2022-12-14T10:01:36.207Z,36.97
2022-12-14T10:04:23.625Z,37.21
2022-12-14T10:07:12.139Z,37.29
2022-12-14T10:10:00.041Z,37.35
2022-12-14T10:12:35.065Z,38.18
2022-12-14T10:15:20.374Z,37.87
2022-12-14T10:18:34.036Z,37.56
2022-12-14T10:21:11.447Z,37.48
2022-12-14T10:23:48.713Z,36.54
2022-12-14T10:26:22.277Z,37.11
2022-12-14T10:29:06.286Z,36.56
2022-12-14T10:31:49.739Z,37.11
2022-12-14T10:34:30.314Z,36.94
2022-12-14T10:37:27.091Z,36.86
2022-12-14T10:40:19.697Z,37.54
2022-12-14T10:43:04.539Z,37.62
2022-12-14T10:45:41.860Z,37.71
2022-12-14T10:48:41.094Z,37.92
2022-12-14T10:51:45.946Z,38.48
2022-12-14T10:54:27.439Z,37.88
2022-12-14T10:56:57.347Z,38.12
2022-12-14T10:59:39.699Z,38.52
2022-12-14T11:02:23.133Z,39.25
2022-12-14T11:04:56.955Z,39.20
2022-12-14T11:07:38.167Z,39.69
2022-12-14T11:10:23.475Z,39.95
2022-12-14T11:13:16.720Z,39.51
2022-12-14T11:15:49.133Z,39.59
2022-12-14T11:18:18.880Z,39.60
2022-12-14T11:20:59.143Z,39.31
2022-12-14T11:23:43.875Z,39.51
2022-12-14T11:26:44.501Z,39.69
2022-12-14T11:29:32.293Z,39.59
2022-12-14T11:32:02.993Z,40.17
2022-12-14T11:35:07.804Z,40.15
2022-12-14T11:37:37.455Z,40.48
2022-12-14T11:40:23.623Z,40.82
2022-12-14T11:42:58.699Z,41.22
2022-12-14T11:45:28.633Z,42.41
2022-12-14T11:48:16.596Z,42.77
2022-12-14T11:50:49.236Z,43.34
2022-12-14T11:53:22.966Z,43.62
2022-12-14T11:56:04.416Z,44.05
2022-12-14T11:58:39.870Z,44.20
2022-12-14T12:01:23.063Z,44.63
2022-12-14T12:03:58.901Z,44.97
2022-12-14T12:06:32.451Z,44.87
2022-12-14T12:09:05.805Z,44.95
2022-12-14T12:11:39.704Z,44.88
2022-12-14T12:14:34.850Z,45.03
2022-12-14T12:17:18.523Z,45.82
2022-12-14T12:19:52.594Z,46.07
2022-12-14T12:22:23.245Z,46.65
2022-12-14T12:25:24.291Z,46.86
2022-12-14T12:27:57.664Z,46.51
2022-12-14T12:30:31.050Z,47.67
2022-12-14T12:33:09.553Z,46.98
2022-12-14T12:35:49.762Z,47.46
2022-12-14T12:38:41.845Z,47.78
2022-12-14T12:41:43.277Z,48.08
2022-12-14T12:44:49.733Z,48.54
2022-12-14T12:47:47.802Z,49.14
2022-12-14T12:50:22.708Z,49.15
2022-12-14T12:53:03.644Z,49.31
2022-12-14T12:55:38.496Z,49.61
2022-12-14T12:58:10.778Z,49.63
2022-12-14T13:00:42.972Z,49.73
2022-12-14T13:03:21.850Z,50.62
2022-12-14T13:05:55.327Z,50.05
2022-12-14T13:08:30.416Z,50.48
2022-12-14T13:11:37.824Z,51.44
2022-12-14T13:14:20.314Z,51.95
2022-12-14T13:16:52.597Z,52.24
2022-12-14T13:20:00.931Z,52.40
2022-12-14T13:22:33.425Z,53.79
2022-12-14T13:25:29.361Z,54.08
2022-12-14T13:28:26.923Z,56.29
2022-12-14T13:31:33.336Z,55.51
2022-12-14T13:34:20.416Z,56.05
2022-12-14T13:37:17.317Z,55.70
2022-12-14T13:40:11.790Z,55.30
2022-12-14T13:43:02.826Z,56.30
2022-12-14T13:45:39.387Z,55.08
2022-12-14T13:48:33.612Z,54.71
2022-12-14T13:51:07.802Z,54.85
2022-12-14T13:53:50.204Z,56.93
2022-12-14T13:56:21.330Z,58.62
2022-12-14T13:58:53.706Z,58.93
2022-12-14T14:01:41.763Z,58.42
2022-12-14T14:04:17.564Z,59.97
2022-12-14T14:06:56.012Z,61.20
2022-12-14T14:09:29.655Z,60.95
2022-12-14T14:12:05.489Z,60.58
2022-12-14T14:14:53.128Z,60.15
2022-12-14T14:17:38.315Z,60.45
2022-12-14T14:20:29.464Z,61.13
2022-12-14T14:23:25.015Z,60.86
2022-12-14T14:26:11.012Z,60.58
2022-12-14T14:28:41.626Z,60.88
2022-12-14T14:31:11.377Z,60.88
2022-12-14T14:33:57.149Z,61.09
2022-12-14T14:36:38.116Z,61.79
2022-12-14T14:42:25.678Z,62.29
2022-12-14T14:44:59.861Z,62.61
2022-12-14T14:47:32.250Z,63.13
2022-12-14T14:50:06.549Z,63.42
2022-12-14T14:52:42.822Z,63.79
2022-12-14T14:55:54.467Z,62.78
2022-12-14T14:58:33.160Z,61.02
2022-12-14T15:01:28.194Z,61.01
2022-12-14T15:04:32.974Z,61.10
2022-12-14T15:07:15.193Z,61.34
2022-12-14T15:09:52.569Z,62.33
2022-12-14T15:12:44.753Z,61.64
2022-12-14T15:15:20.380Z,61.43
2022-12-14T15:17:50.146Z,62.00
2022-12-14T15:20:28.849Z,63.24
2022-12-14T15:22:59.555Z,63.57
2022-12-14T15:25:32.321Z,64.90
2022-12-14T15:28:08.936Z,64.82
2022-12-14T15:33:45.434Z,64.15
2022-12-14T15:36:21.463Z,66.11
2022-12-14T15:38:56.842Z,67.07
2022-12-14T15:41:34.164Z,67.06
2022-12-14T15:44:04.038Z,67.49
2022-12-14T15:46:36.556Z,67.95
2022-12-14T15:49:12.112Z,67.83
2022-12-14T15:51:45.374Z,68.14
2022-12-14T15:54:24.199Z,67.72
2022-12-14T15:56:58.408Z,67.34
2022-12-14T15:59:37.942Z,68.03
2022-12-14T16:02:31.645Z,68.44
2022-12-14T16:05:07.382Z,68.86
2022-12-14T16:07:44.760Z,69.12
2022-12-14T16:10:25.425Z,68.89
2022-12-14T16:13:32.134Z,69.53
2022-12-14T16:16:18.874Z,69.49
2022-12-14T16:18:54.274Z,70.25
2022-12-14T16:21:37.079Z,70.62
2022-12-14T16:24:26.569Z,70.24
2022-12-14T16:27:02.729Z,70.83
2022-12-14T16:29:36.064Z,71.34
2022-12-14T16:32:18.589Z,71.09
2022-12-14T16:35:02.150Z,70.94
2022-12-14T16:37:34.111Z,71.47
2022-12-14T16:40:06.108Z,71.79
2022-12-14T16:42:40.445Z,72.05
2022-12-14T16:45:47.168Z,72.16
2022-12-14T16:48:26.191Z,71.39
2022-12-14T16:51:38.451Z,71.52
2022-12-14T16:54:27.034Z,72.08
2022-12-14T16:57:19.144Z,72.23
2022-12-14T16:59:58.450Z,72.12
2022-12-14T17:02:32.179Z,72.34
2022-12-14T17:05:07.944Z,73.38
2022-12-14T17:07:39.620Z,73.90
2022-12-14T17:10:21.342Z,73.97
2022-12-14T17:12:54.764Z,73.86
2022-12-14T17:15:30.739Z,74.11
2022-12-14T17:18:03.954Z,73.38
2022-12-14T17:20:42.960Z,73.24
2022-12-14T17:23:19.504Z,73.60
2022-12-14T17:25:49.974Z,73.44
2022-12-14T17:28:28.439Z,73.65
2022-12-14T17:31:03.504Z,74.16
2022-12-14T17:33:34.354Z,74.02
2022-12-14T17:36:07.829Z,74.31
2022-12-14T17:38:38.259Z,74.30
2022-12-14T17:41:09.252Z,74.45
2022-12-14T17:43:43.997Z,74.27
2022-12-14T17:46:21.972Z,74.50
2022-12-14T17:48:52.795Z,74.27
2022-12-14T17:51:31.765Z,73.88
2022-12-14T17:54:02.751Z,73.70
2022-12-14T17:56:32.956Z,73.70
2022-12-14T17:59:03.382Z,74.16
2022-12-14T18:01:33.943Z,74.00
2022-12-14T18:04:04.512Z,74.05
2022-12-14T18:06:34.217Z,74.25
2022-12-14T18:09:06.944Z,74.37
2022-12-14T18:11:39.184Z,74.67
2022-12-14T18:14:16.860Z,74.77
2022-12-14T18:16:46.449Z,74.52
2022-12-14T18:19:17.734Z,74.31
2022-12-14T18:21:47.194Z,74.39
2022-12-14T18:24:25.607Z,74.03
2022-12-14T18:26:55.469Z,74.18
2022-12-14T18:29:25.008Z,74.22
2022-12-14T18:31:58.026Z,73.38
2022-12-14T18:34:27.137Z,73.36
2022-12-14T18:36:56.893Z,73.62
2022-12-14T18:39:26.438Z,73.33
2022-12-14T18:41:55.893Z,73.69
2022-12-14T18:44:26.146Z,74.03
2022-12-14T18:46:57.813Z,74.25
2022-12-14T18:49:29.564Z,74.27
2022-12-14T18:51:59.263Z,74.23
2022-12-14T18:54:29.046Z,74.59
2022-12-14T18:56:58.732Z,75.07
2022-12-14T18:59:28.388Z,74.85
2022-12-14T19:01:59.431Z,74.80
2022-12-14T19:04:35.132Z,75.16
2022-12-14T19:07:05.169Z,74.72
2022-12-14T19:09:35.522Z,74.84
2022-12-14T19:12:06.657Z,75.26
2022-12-14T19:14:40.768Z,74.85
2022-12-14T19:17:13.594Z,75.17
2022-12-14T19:19:44.549Z,75.14
2022-12-14T19:22:18.290Z,75.34
2022-12-14T19:24:52.505Z,75.64
2022-12-14T19:28:00.927Z,76.03
2022-12-14T19:30:25.871Z,75.67
2022-12-14T19:32:57.628Z,76.03
2022-12-14T19:35:27.414Z,76.12
2022-12-14T19:37:57.730Z,76.25
2022-12-14T19:40:31.199Z,76.49
2022-12-14T19:43:01.574Z,76.36
2022-12-14T19:45:34.102Z,76.40
2022-12-14T19:48:09.991Z,76.28
2022-12-14T19:50:42.481Z,75.87
2022-12-14T19:53:18.516Z,75.97
2022-12-14T19:55:53.659Z,76.13
2022-12-14T19:58:23.944Z,76.09
2022-12-14T20:00:54.165Z,76.35
2022-12-14T20:03:25.480Z,76.53
2022-12-14T20:05:59.041Z,76.62
2022-12-14T20:08:33.709Z,76.72
2022-12-14T20:11:13.363Z,76.42
2022-12-14T20:13:43.814Z,76.57
2022-12-14T20:16:19.404Z,76.66
2022-12-14T20:18:51.359Z,76.68
2022-12-14T20:21:25.538Z,76.68
2022-12-14T20:23:59.276Z,76.51
2022-12-14T20:26:39.603Z,76.03
2022-12-14T20:29:10.430Z,75.87
2022-12-14T20:31:41.935Z,76.23
2022-12-14T20:34:11.979Z,76.30
2022-12-14T20:36:42.818Z,76.23
2022-12-14T20:39:15.136Z,76.49
2022-12-14T20:41:45.267Z,76.02
2022-12-14T20:44:17.001Z,76.80
2022-12-14T20:46:51.417Z,76.78
2022-12-14T20:49:30.538Z,76.79
2022-12-14T20:52:00.971Z,76.97
2022-12-14T20:54:39.533Z,76.72
2022-12-14T20:57:10.379Z,76.44
2022-12-14T20:59:39.999Z,76.80
2022-12-14T21:02:18.978Z,77.17
2022-12-14T21:04:48.693Z,77.21
2022-12-14T21:07:22.817Z,77.48
2022-12-14T21:09:55.366Z,77.16
2022-12-14T21:12:25.194Z,76.94
2022-12-14T21:14:57.271Z,76.86
2022-12-14T21:17:29.512Z,76.92
2022-12-14T21:19:59.666Z,76.73
2022-12-14T21:22:31.503Z,77.29
2022-12-14T21:25:03.597Z,76.59
2022-12-14T21:27:33.152Z,76.24
2022-12-14T21:30:03.250Z,76.55
2022-12-14T21:32:33.283Z,76.15
2022-12-14T21:35:03.005Z,75.27
2022-12-14T21:37:32.763Z,75.13
2022-12-14T21:40:04.610Z,74.24
2022-12-14T21:42:34.209Z,73.82
2022-12-14T21:45:05.873Z,73.40
2022-12-14T21:47:35.782Z,73.22
2022-12-14T21:50:05.606Z,72.73
2022-12-14T21:52:35.409Z,72.94
2022-12-14T21:55:04.848Z,72.05
2022-12-14T21:57:52.560Z,71.91
2022-12-14T22:00:23.105Z,71.64
2022-12-14T22:02:52.952Z,71.98
2022-12-14T22:05:22.390Z,72.48
2022-12-14T22:07:53.179Z,72.50
2022-12-14T22:10:24.993Z,72.61
2022-12-14T22:12:55.030Z,72.76
2022-12-14T22:15:24.735Z,72.90
2022-12-14T22:17:54.021Z,73.26
2022-12-14T22:20:23.481Z,73.12
2022-12-14T22:22:52.865Z,73.33
2022-12-14T22:25:22.767Z,73.43
2022-12-14T22:27:52.272Z,72.36
2022-12-14T22:30:23.962Z,72.45
2022-12-14T22:32:55.694Z,72.66
2022-12-14T22:35:24.967Z,72.51
2022-12-14T22:37:54.598Z,72.68
2022-12-14T22:40:24.138Z,72.84
2022-12-14T22:42:53.348Z,72.91
2022-12-14T22:45:22.811Z,72.85
2022-12-14T22:47:52.453Z,72.73
2022-12-14T22:50:22.361Z,72.55
2022-12-14T22:52:51.881Z,72.57
2022-12-14T22:55:21.549Z,72.65
2022-12-14T22:57:51.356Z,71.97
2022-12-14T23:00:20.851Z,71.13
2022-12-14T23:02:50.870Z,71.42
2022-12-14T23:05:21.007Z,72.05
2022-12-14T23:07:50.480Z,72.09
2022-12-14T23:10:38.093Z,72.78
2022-12-14T23:13:25.512Z,73.01
2022-12-14T23:16:13.485Z,72.98
2022-12-14T23:19:01.528Z,73.03
2022-12-14T23:21:49.388Z,73.43
2022-12-14T23:24:37.189Z,73.43
2022-12-14T23:27:24.964Z,73.83
2022-12-14T23:30:12.522Z,73.42
2022-12-14T23:33:00.155Z,73.00
2022-12-14T23:35:47.588Z,72.47
2022-12-14T23:38:35.741Z,72.29
2022-12-14T23:41:23.685Z,71.89
2022-12-14T23:44:11.651Z,72.03
2022-12-14T23:46:59.077Z,72.25
2022-12-14T23:49:47.388Z,71.96
2022-12-14T23:52:35.030Z,70.31
2022-12-14T23:55:22.466Z,68.96
2022-12-14T23:58:10.331Z,67.56
